Time;durP1;ratioP1;P1;durP2;ratioP2;P2;SDS_P1;SDS_P2;PMS_P1;PMS_P2;Temp;Humidity;BMP_temperature;BMP_pressure;BME280_temperature;BME280_humidity;BME280_pressure;Samples;Min_cycle;Max_cycle;Signal;HPM_P1;HPM_P2
2022/08/27 00:00:20;;;;;;;10.13;2.78;;;;;;;22.86;100.00;101615.81;5082395;28;20091;-60
2022/08/27 00:02:47;;;;;;;8.23;2.20;;;;;;;22.92;100.00;101613.97;5080610;28;20033;-59
2022/08/27 00:05:16;;;;;;;5.97;1.70;;;;;;;22.93;100.00;101615.59;5080092;28;20051;-60
2022/08/27 00:07:42;;;;;;;8.37;2.07;;;;;;;22.87;100.00;101619.38;5078323;28;20078;-57
2022/08/27 00:10:13;;;;;;;9.90;2.57;;;;;;;22.87;100.00;101620.19;5082052;28;20108;-61
2022/08/27 00:12:38;;;;;;;6.70;2.00;;;;;;;22.86;100.00;101612.28;5080634;28;20043;-58
2022/08/27 00:15:05;;;;;;;7.78;3.05;;;;;;;22.85;100.00;101610.63;5082404;28;20044;-60
2022/08/27 00:17:30;;;;;;;;;;;;;;;22.67;100.00;101615.38;5078894;28;20053;-59
2022/08/27 00:19:56;;;;;;;8.67;3.00;;;;;;;22.68;100.00;101610.75;5079546;28;19961;-61
2022/08/27 00:22:21;;;;;;;17.48;5.38;;;;;;;22.69;100.00;101609.66;5079911;28;20176;-56
2022/08/27 00:24:47;;;;;;;9.20;2.65;;;;;;;22.66;100.00;101602.84;5082340;28;20043;-60
2022/08/27 00:27:12;;;;;;;7.28;2.67;;;;;;;22.68;100.00;101608.00;5082707;28;20075;-56
2022/08/27 00:29:38;;;;;;;9.73;2.55;;;;;;;22.69;100.00;101610.50;5079741;28;20025;-59
2022/08/27 00:32:03;;;;;;;16.00;7.40;;;;;;;22.70;100.00;101605.84;5082667;28;20037;-59
2022/08/27 00:34:30;;;;;;;7.57;3.22;;;;;;;22.56;100.00;101605.44;5080663;28;20040;-60
2022/08/27 00:36:55;;;;;;;;;;;;;;;22.65;100.00;101603.09;5081689;28;20030;-60
2022/08/27 00:39:21;;;;;;;6.37;2.20;;;;;;;22.75;100.00;101595.00;5081963;28;19985;-59
2022/08/27 00:41:47;;;;;;;4.50;1.65;;;;;;;22.70;100.00;101597.66;5076195;28;20049;-60
2022/08/27 00:44:13;;;;;;;8.05;2.78;;;;;;;22.44;100.00;101600.97;5080980;28;20167;-59
2022/08/27 00:46:43;;;;;;;6.63;2.08;;;;;;;22.43;100.00;101596.59;5080910;28;20101;-63
2022/08/27 00:49:17;;;;;;;6.70;2.07;;;;;;;22.47;100.00;101586.84;5080899;28;20032;-59
2022/08/27 00:51:51;;;;;;;9.90;1.80;;;;;;;22.36;100.00;101590.50;5083603;28;20097;-61
2022/08/27 00:54:17;;;;;;;8.07;2.73;;;;;;;22.61;100.00;101591.88;5080183;28;20029;-62
2022/08/27 00:56:43;;;;;;;;;;;;;;;22.61;100.00;101605.53;5078914;28;20033;-60
2022/08/27 00:59:13;;;;;;;6.57;2.33;;;;;;;22.43;100.00;101599.31;5082175;28;19966;-60
2022/08/27 01:02:17;;;;;;;6.07;2.43;;;;;;;22.41;100.00;101593.31;5080045;28;20041;-57
2022/08/27 01:04:26;;;;;;;11.77;2.47;;;;;;;22.65;100.00;101594.91;5080604;28;20048;-57
2022/08/27 01:06:53;;;;;;;8.70;2.53;;;;;;;22.81;100.00;101601.31;5077701;28;20047;-57
2022/08/27 01:09:19;;;;;;;11.57;3.70;;;;;;;22.66;100.00;101611.00;5078021;28;20028;-58
2022/08/27 01:11:47;;;;;;;14.33;6.60;;;;;;;22.49;100.00;101606.50;5080104;28;20036;-60
2022/08/27 01:14:13;;;;;;;8.80;2.83;;;;;;;22.34;100.00;101603.56;5074527;28;20025;-60
2022/08/27 01:16:44;;;;;;;12.27;4.57;;;;;;;22.47;100.00;101608.66;5079930;28;20033;-58
2022/08/27 01:19:23;;;;;;;9.17;3.10;;;;;;;22.85;100.00;101610.63;5076922;28;20029;-55
2022/08/27 01:22:27;;;;;;;9.03;2.73;;;;;;;22.99;100.00;101611.81;5076493;28;20048;-57
2022/08/27 01:24:55;;;;;;;10.60;3.47;;;;;;;23.08;100.00;101614.09;5076285;28;20047;-59
2022/08/27 01:27:24;;;;;;;14.73;2.97;;;;;;;22.91;100.00;101609.59;5076537;28;20061;-56
2022/08/27 01:29:50;;;;;;;17.87;6.60;;;;;;;22.99;100.00;101605.56;5077511;28;20168;-54
2022/08/27 01:32:21;;;;;;;;;;;;;;;22.84;100.00;101598.91;5081108;28;20032;-57
2022/08/27 01:34:48;;;;;;;10.10;3.40;;;;;;;22.96;100.00;101598.72;5074717;28;19912;-57
2022/08/27 01:37:14;;;;;;;;;;;;;;;22.73;100.00;101597.97;5081808;28;20047;-58
2022/08/27 01:39:41;;;;;;;9.73;3.00;;;;;;;22.78;100.00;101598.03;5082119;28;19912;-57
2022/08/27 01:42:15;;;;;;;6.80;2.40;;;;;;;22.96;100.00;101603.38;5076543;28;20045;-57
2022/08/27 01:44:54;;;;;;;7.73;2.50;;;;;;;22.93;100.00;101596.50;5079303;28;20033;-57
2022/08/27 01:47:23;;;;;;;7.97;2.17;;;;;;;22.84;100.00;101601.63;5077056;28;20100;-55
2022/08/27 01:49:49;;;;;;;3.60;2.00;;;;;;;22.79;100.00;101593.41;5077467;28;20085;-59
2022/08/27 01:52:16;;;;;;;;;;;;;;;22.80;100.00;101596.94;5080679;28;20032;-57
2022/08/27 01:54:41;;;;;;;8.25;2.30;;;;;;;22.62;100.00;101586.16;5075257;28;19912;-58
2022/08/27 01:57:08;;;;;;;5.70;2.35;;;;;;;22.48;100.00;101587.66;5070923;28;20055;-58
2022/08/27 01:59:34;;;;;;;3.97;2.23;;;;;;;22.10;100.00;101587.50;5072976;28;20045;-58
2022/08/27 02:02:01;;;;;;;7.10;2.13;;;;;;;22.00;100.00;101584.69;5075426;28;20044;-58
2022/08/27 02:04:29;;;;;;;8.03;2.47;;;;;;;21.95;100.00;101590.06;5076304;28;20033;-58
2022/08/27 02:06:55;;;;;;;9.00;2.70;;;;;;;21.90;100.00;101588.91;5078864;28;20155;-58
2022/08/27 02:09:20;;;;;;;6.25;2.78;;;;;;;22.36;100.00;101582.34;5078309;28;20096;-56
2022/08/27 02:11:46;;;;;;;10.07;2.10;;;;;;;22.44;100.00;101579.16;5076209;28;20066;-57
2022/08/27 02:14:12;;;;;;;11.48;2.80;;;;;;;22.35;100.00;101580.69;5075480;28;20124;-54
2022/08/27 02:16:38;;;;;;;4.75;2.53;;;;;;;22.29;100.00;101584.44;5073042;28;20107;-58
2022/08/27 02:19:05;;;;;;;9.80;2.20;;;;;;;22.31;100.00;101582.28;5080258;28;20041;-57
2022/08/27 02:21:31;;;;;;;11.63;3.10;;;;;;;22.24;100.00;101579.75;5079135;28;20028;-60
2022/08/27 02:23:56;;;;;;;9.98;2.17;;;;;;;22.22;100.00;101587.38;5076033;28;20117;-58
2022/08/27 02:26:22;;;;;;;12.75;2.83;;;;;;;22.26;100.00;101574.06;5078580;28;20104;-57
2022/08/27 02:28:48;;;;;;;5.67;2.20;;;;;;;22.24;100.00;101576.22;5079612;28;20088;-55
2022/08/27 02:31:14;;;;;;;6.85;2.17;;;;;;;22.16;100.00;101578.34;5073921;28;20036;-56
2022/08/27 02:33:40;;;;;;;12.10;2.50;;;;;;;22.12;100.00;101576.38;5071772;28;20034;-56
2022/08/27 02:36:07;;;;;;;10.15;2.28;;;;;;;22.15;100.00;101573.97;5069401;28;20036;-57
2022/08/27 02:38:33;;;;;;;6.43;2.50;;;;;;;22.17;100.00;101574.53;5068543;28;20053;-55
2022/08/27 02:40:59;;;;;;;;;;;;;;;22.07;100.00;101574.41;5070272;28;20068;-57
2022/08/27 02:43:25;;;;;;;6.10;2.47;;;;;;;21.98;100.00;101573.22;5070819;28;19972;-57
2022/08/27 02:45:50;;;;;;;4.38;1.90;;;;;;;21.99;100.00;101583.03;5077101;28;20072;-58
2022/08/27 02:48:16;;;;;;;6.75;2.50;;;;;;;21.92;100.00;101566.91;5073974;28;20037;-58
2022/08/27 02:50:42;;;;;;;10.52;2.58;;;;;;;21.90;100.00;101572.59;5074718;28;20047;-55
2022/08/27 02:53:09;;;;;;;7.97;2.50;;;;;;;21.85;100.00;101569.00;5078885;28;20024;-57
2022/08/27 02:55:34;;;;;;;;;;;;;;;21.82;100.00;101573.03;5079483;28;20039;-55
2022/08/27 02:58:00;;;;;;;10.13;2.30;;;;;;;21.81;100.00;101574.13;5078966;28;19913;-58
2022/08/27 03:00:27;;;;;;;;;;;;;;;21.83;100.00;101566.50;5080621;28;20048;-57
2022/08/27 03:02:54;;;;;;;10.63;2.75;;;;;;;21.74;100.00;101562.59;5081052;28;19913;-56
2022/08/27 03:05:20;;;;;;;7.40;2.63;;;;;;;21.74;100.00;101565.31;5079692;28;20032;-58
2022/08/27 03:07:46;;;;;;;5.47;2.20;;;;;;;21.75;100.00;101558.81;5078094;28;20033;-56
2022/08/27 03:10:14;;;;;;;6.97;2.45;;;;;;;21.73;100.00;101564.50;5077608;28;20051;-59
2022/08/27 03:12:40;;;;;;;8.90;2.50;;;;;;;21.63;100.00;101556.97;5075855;28;20037;-58
2022/08/27 03:15:07;;;;;;;;;;;;;;;21.60;100.00;101560.22;5073948;28;20036;-58
2022/08/27 03:20:17;;;;;;;9.17;2.83;;;;;;;21.52;100.00;101560.66;5070281;28;20033;-56
2022/08/27 03:22:43;;;;;;;6.88;2.53;;;;;;;21.65;100.00;101559.50;5075089;28;20044;-56
2022/08/27 03:25:10;;;;;;;8.00;2.40;;;;;;;21.69;100.00;101560.63;5075410;28;20092;-59
2022/08/27 03:27:36;;;;;;;;;;;;;;;21.66;100.00;101563.03;5079148;28;20025;-57
2022/08/27 03:30:08;;;;;;;5.77;2.53;;;;;;;21.64;100.00;101563.25;5076042;28;19920;-57
2022/08/27 03:32:34;;;;;;;9.60;2.33;;;;;;;21.60;100.00;101565.66;5079324;28;20052;-56
2022/08/27 03:35:00;;;;;;;;;;;;;;;21.56;100.00;101569.13;5078377;28;20033;-58
2022/08/27 03:37:26;;;;;;;10.03;3.00;;;;;;;21.55;100.00;101562.88;5079610;28;19923;-55
2022/08/27 03:39:52;;;;;;;10.83;4.07;;;;;;;21.45;100.00;101570.88;5079869;28;20029;-57
2022/08/27 03:42:17;;;;;;;6.78;2.03;;;;;;;21.46;100.00;101567.94;5074319;28;20060;-58
2022/08/27 03:44:43;;;;;;;7.18;2.45;;;;;;;21.51;100.00;101575.34;5075191;28;20072;-57
2022/08/27 03:47:09;;;;;;;8.38;2.55;;;;;;;21.55;100.00;101571.03;5074946;28;20049;-57
2022/08/27 03:49:34;;;;;;;7.85;2.67;;;;;;;21.60;100.00;101568.38;5075465;28;20039;-59
2022/08/27 03:52:00;;;;;;;5.82;2.15;;;;;;;21.61;100.00;101575.47;5073161;28;20037;-57
2022/08/27 03:54:26;;;;;;;9.03;2.20;;;;;;;21.66;100.00;101574.75;5073497;28;20052;-58
2022/08/27 03:56:52;;;;;;;10.43;2.55;;;;;;;21.55;100.00;101568.31;5069429;28;20024;-57
2022/08/27 03:59:17;;;;;;;6.93;2.75;;;;;;;21.63;100.00;101572.50;5073991;28;20096;-58
2022/08/27 04:01:43;;;;;;;12.50;3.35;;;;;;;21.72;100.00;101581.09;5077141;28;20036;-60
2022/08/27 04:04:09;;;;;;;;;;;;;;;21.68;100.00;101578.03;5077356;28;20093;-58
2022/08/27 04:06:35;;;;;;;11.17;2.40;;;;;;;21.48;100.00;101575.84;5079975;28;19913;-58
2022/08/27 04:09:02;;;;;;;;;;;;;;;21.63;100.00;101577.94;5080444;28;20078;-59
2022/08/27 04:11:28;;;;;;;9.13;2.90;;;;;;;21.62;100.00;101574.38;5079918;28;19912;-58
2022/08/27 04:13:54;;;;;;;;;;;;;;;21.54;100.00;101574.84;5081461;28;20035;-59
2022/08/27 04:16:20;;;;;;;6.33;2.43;;;;;;;21.55;100.00;101571.03;5080138;28;19912;-57
2022/08/27 04:18:47;;;;;;;11.03;2.77;;;;;;;21.51;100.00;101575.34;5080846;28;20036;-57
2022/08/27 04:21:14;;;;;;;4.75;2.10;;;;;;;21.47;100.00;101572.28;5084785;28;20044;-59
2022/08/27 04:23:41;;;;;;;7.43;2.33;;;;;;;21.46;100.00;101569.84;5083457;28;20036;-57
2022/08/27 04:26:08;;;;;;;5.37;2.30;;;;;;;21.39;100.00;101564.56;5081543;28;20788;-56
2022/08/27 04:28:34;;;;;;;16.23;2.20;;;;;;;21.41;100.00;101576.03;5081075;28;20060;-59
2022/08/27 04:31:01;;;;;;;;;;;;;;;21.20;100.00;101578.44;5077197;28;20044;-59
2022/08/27 04:33:26;;;;;;;8.47;2.60;;;;;;;21.29;100.00;101570.69;5079530;28;19940;-57
2022/08/27 04:36:01;;;;;;;5.72;2.83;;;;;;;21.28;100.00;101562.78;5057741;28;20049;-55
2022/08/27 04:38:27;;;;;;;6.03;2.13;;;;;;;21.28;100.00;101577.22;5074030;28;20026;-57
2022/08/27 04:43:37;;;;;;;6.03;2.50;;;;;;;21.05;100.00;101575.47;5079744;28;20092;-59
2022/08/27 04:46:03;;;;;;;;;;;;;;;20.99;100.00;101590.91;5078647;28;20024;-58
2022/08/27 04:48:29;;;;;;;13.30;3.17;;;;;;;20.98;100.00;101577.56;5079091;28;20003;-59
2022/08/27 04:50:55;;;;;;;6.18;2.85;;;;;;;20.99;100.00;101584.66;5077021;28;20036;-57
2022/08/27 04:53:21;;;;;;;8.25;2.72;;;;;;;21.01;100.00;101586.06;5078700;28;20093;-55
2022/08/27 04:55:50;;;;;;;10.38;3.22;;;;;;;21.06;100.00;101586.13;5080108;28;20051;-57
2022/08/27 04:58:17;;;;;;;8.57;2.97;;;;;;;21.09;100.00;101583.97;5082477;28;20032;-56
2022/08/27 05:00:58;;;;;;;7.67;2.60;;;;;;;21.05;100.00;101581.75;5080263;28;20033;-56
2022/08/27 05:03:24;;;;;;;7.60;2.80;;;;;;;21.05;100.00;101584.47;5084571;28;20036;-56
2022/08/27 05:05:52;;;;;;;7.40;2.93;;;;;;;21.03;100.00;101585.78;5085851;28;20044;-57
2022/08/27 05:08:19;;;;;;;9.23;2.37;;;;;;;21.02;100.00;101584.16;5081495;28;20108;-59
2022/08/27 05:10:47;;;;;;;5.43;2.60;;;;;;;21.06;100.00;101583.41;5078272;28;20051;-56
2022/08/27 05:13:17;;;;;;;8.93;2.97;;;;;;;21.07;100.00;101586.94;5077426;28;20028;-57
2022/08/27 05:15:43;;;;;;;9.17;2.40;;;;;;;21.11;100.00;101592.72;5076683;28;20084;-58
2022/08/27 05:18:09;;;;;;;;;;;;;;;20.97;100.00;101592.22;5078049;28;20040;-58
2022/08/27 05:20:44;;;;;;;6.47;2.27;;;;;;;21.00;100.00;101589.84;5078223;28;19912;-56
2022/08/27 05:23:12;;;;;;;24.43;2.97;;;;;;;21.02;100.00;101595.03;5075595;28;20025;-58
2022/08/27 05:25:40;;;;;;;6.07;2.37;;;;;;;21.01;100.00;101602.38;5078599;28;20037;-57
2022/08/27 05:28:07;;;;;;;13.97;4.17;;;;;;;20.98;100.00;101594.69;5079373;28;20029;-58
2022/08/27 05:30:36;;;;;;;;;;;;;;;21.09;100.00;101594.84;5083275;28;20029;-57
2022/08/27 05:33:02;;;;;;;5.50;2.53;;;;;;;21.17;100.00;101599.88;5076743;28;19911;-55
2022/08/27 05:35:28;;;;;;;12.52;3.00;;;;;;;21.13;100.00;101601.44;5082356;28;20044;-58
2022/08/27 05:37:53;;;;;;;10.05;2.35;;;;;;;21.35;100.00;101604.25;5078472;28;20033;-55
2022/08/27 05:40:19;;;;;;;7.78;2.50;;;;;;;21.35;100.00;101607.78;5078143;28;20054;-57
2022/08/27 05:42:46;;;;;;;7.53;2.78;;;;;;;21.58;100.00;101605.91;5078886;28;20033;-58
2022/08/27 05:45:12;;;;;;;6.80;2.37;;;;;;;21.23;100.00;101608.94;5075008;28;20100;-58
2022/08/27 05:47:38;;;;;;;20.02;9.57;;;;;;;21.73;100.00;101608.03;5074341;28;20058;-57
2022/08/27 05:50:04;;;;;;;17.70;8.45;;;;;;;21.83;100.00;101618.25;5079546;28;20032;-57
2022/08/27 05:52:30;;;;;;;16.20;7.23;;;;;;;21.92;100.00;101605.84;5080312;28;20109;-58
2022/08/27 05:54:56;;;;;;;10.00;3.08;;;;;;;22.04;100.00;101613.06;5081077;28;20025;-58
2022/08/27 05:57:21;;;;;;;13.38;5.07;;;;;;;22.07;100.00;101609.81;5079270;28;20041;-59
2022/08/27 06:02:38;;;;;;;16.47;4.90;;;;;;;22.01;100.00;101608.13;5081464;28;20048;-58
2022/08/27 06:05:04;;;;;;;12.98;5.07;;;;;;;22.05;100.00;101604.63;5083138;28;20020;-59
2022/08/27 06:07:32;;;;;;;18.48;6.63;;;;;;;22.11;100.00;101604.69;5077115;28;20041;-56
2022/08/27 06:09:58;;;;;;;19.50;7.53;;;;;;;22.02;100.00;101604.31;5075610;28;20040;-58
2022/08/27 06:12:24;;;;;;;23.50;9.88;;;;;;;22.08;100.00;101597.84;5072327;28;20037;-59
2022/08/27 06:14:49;;;;;;;16.27;6.95;;;;;;;22.16;100.00;101596.56;5073471;28;20037;-57
2022/08/27 06:17:16;;;;;;;13.07;4.73;;;;;;;22.14;100.00;101599.53;5075869;28;20036;-58
2022/08/27 06:19:42;;;;;;;;;;;;;;;22.16;100.00;101602.84;5076090;28;20029;-58
2022/08/27 06:22:07;;;;;;;23.40;10.53;;;;;;;22.26;100.00;101604.88;5079430;28;19913;-57
2022/08/27 06:24:34;;;;;;;21.93;10.00;;;;;;;22.14;100.00;101610.44;5079698;28;20029;-57
2022/08/27 06:27:00;;;;;;;22.70;8.63;;;;;;;22.13;100.00;101616.16;5078075;28;20097;-59
2022/08/27 06:29:26;;;;;;;16.05;7.70;;;;;;;22.20;100.00;101614.88;5080072;28;20040;-58
2022/08/27 06:31:53;;;;;;;34.65;13.55;;;;;;;22.33;100.00;101612.81;5080139;28;20040;-57
2022/08/27 06:34:19;;;;;;;26.10;11.63;;;;;;;22.40;100.00;101615.34;5082208;28;20025;-58
2022/08/27 06:36:45;;;;;;;24.05;8.90;;;;;;;22.68;100.00;101613.47;5082931;28;20092;-59
2022/08/27 06:39:12;;;;;;;19.30;9.27;;;;;;;22.83;100.00;101620.94;5079184;28;20024;-58
2022/08/27 06:41:39;;;;;;;12.77;5.03;;;;;;;22.75;100.00;101614.91;5078659;28;20049;-57
2022/08/27 06:44:11;;;;;;;12.20;4.60;;;;;;;22.83;100.00;101613.59;5078030;28;20037;-58
2022/08/27 06:46:37;;;;;;;13.43;6.63;;;;;;;22.55;100.00;101614.72;5075797;28;20040;-60
2022/08/27 06:49:02;;;;;;;;;;;;;;;22.88;100.00;101613.66;5068476;28;20040;-57
2022/08/27 06:51:31;;;;;;;9.73;4.93;;;;;;;23.13;100.00;101614.13;5073344;28;19912;-57
2022/08/27 06:54:06;;;;;;;13.80;5.90;;;;;;;23.30;100.00;101617.56;5070891;28;20039;-58
2022/08/27 06:56:32;;;;;;;9.33;4.33;;;;;;;23.44;100.00;101619.81;5074244;28;20036;-57
2022/08/27 06:59:00;;;;;;;7.75;2.72;;;;;;;23.37;100.00;101619.22;5072308;28;20147;-57
2022/08/27 07:01:31;;;;;;;9.63;4.17;;;;;;;23.51;100.00;101625.84;5075143;28;20104;-58
2022/08/27 07:04:04;;;;;;;9.23;3.23;;;;;;;23.58;100.00;101620.16;5075685;28;20044;-59
2022/08/27 07:06:30;;;;;;;9.43;3.77;;;;;;;23.41;100.00;101620.34;5075716;28;20055;-58
2022/08/27 07:08:56;;;;;;;13.17;6.90;;;;;;;23.34;100.00;101615.09;5079624;28;20033;-60
2022/08/27 07:11:22;;;;;;;;;;;;;;;23.44;100.00;101620.63;5077445;28;20028;-59
2022/08/27 07:13:48;;;;;;;7.17;3.60;;;;;;;23.70;100.00;101620.78;5078816;28;19939;-58
2022/08/27 07:16:17;;;;;;;5.20;2.20;;;;;;;23.76;100.00;101621.63;5076520;28;20036;-59
2022/08/27 07:18:43;;;;;;;9.63;4.43;;;;;;;23.82;100.00;101615.09;5076775;28;20041;-60
2022/08/27 07:21:09;;;;;;;13.10;4.60;;;;;;;23.53;100.00;101620.97;5077588;28;20096;-56
2022/08/27 07:23:36;;;;;;;7.53;3.40;;;;;;;23.62;100.00;101627.56;5070983;28;20045;-59
2022/08/27 07:26:10;;;;;;;9.27;3.17;;;;;;;23.39;100.00;101617.06;5073024;28;20054;-57
2022/08/27 07:28:38;;;;;;;9.30;2.20;;;;;;;23.67;100.00;101629.50;5074436;28;20106;-57
2022/08/27 07:31:07;;;;;;;11.80;3.20;;;;;;;23.65;100.00;101631.69;5069358;28;20040;-58
2022/08/27 07:33:33;;;;;;;30.33;14.50;;;;;;;23.61;100.00;101633.28;5073884;28;20036;-59
2022/08/27 07:36:00;;;;;;;198.77;109.23;;;;;;;23.80;100.00;101633.66;5077683;28;20054;-57
2022/08/27 07:38:26;;;;;;;16.13;6.43;;;;;;;23.89;100.00;101642.97;5074730;28;20016;-56
2022/08/27 07:40:52;;;;;;;11.83;4.00;;;;;;;23.98;100.00;101637.81;5076197;28;20059;-58
2022/08/27 07:46:04;;;;;;;10.90;3.70;;;;;;;23.97;100.00;101640.81;5079845;28;20092;-59
2022/08/27 07:48:32;;;;;;;13.17;6.73;;;;;;;24.15;100.00;101645.84;5081119;28;20058;-58
2022/08/27 07:50:58;;;;;;;36.97;19.53;;;;;;;24.35;100.00;101649.72;5083558;28;20024;-58
2022/08/27 07:53:24;;;;;;;21.90;12.03;;;;;;;24.46;100.00;101650.56;5081049;28;20032;-58
2022/08/27 07:55:49;;;;;;;76.63;41.92;;;;;;;24.26;100.00;101648.63;5082475;28;20032;-57
2022/08/27 07:58:15;;;;;;;97.47;48.13;;;;;;;24.54;100.00;101658.22;5077663;28;20154;-57
2022/08/27 08:00:42;;;;;;;77.03;43.00;;;;;;;24.66;100.00;101655.25;5077142;28;20059;-56
2022/08/27 08:03:09;;;;;;;110.57;51.77;;;;;;;25.18;100.00;101655.31;5075806;28;20041;-57
2022/08/27 08:05:34;;;;;;;17.53;8.63;;;;;;;25.23;100.00;101658.03;5076775;28;20033;-58
2022/08/27 08:08:00;;;;;;;21.98;9.93;;;;;;;25.11;100.00;101661.06;5077787;28;20064;-58
2022/08/27 08:10:26;;;;;;;28.85;11.60;;;;;;;25.09;100.00;101654.22;5077357;28;20050;-58
2022/08/27 08:12:51;;;;;;;59.63;20.77;;;;;;;25.35;100.00;101658.56;5081393;28;20027;-60
2022/08/27 08:15:17;;;;;;;61.97;24.50;;;;;;;25.41;100.00;101661.31;5078840;28;20041;-58
2022/08/27 08:17:43;;;;;;;52.60;17.92;;;;;;;25.69;100.00;101661.81;5081960;28;20057;-58
2022/08/27 08:20:11;;;;;;;9.47;4.30;;;;;;;25.65;100.00;101658.00;5081567;28;20052;-55
2022/08/27 08:22:38;;;;;;;38.50;14.40;;;;;;;25.69;100.00;101654.41;5082876;28;20055;-57
2022/08/27 08:25:05;;;;;;;52.17;22.10;;;;;;;25.48;100.00;101659.13;5084289;28;20044;-58
2022/08/27 08:27:31;;;;;;;34.33;13.20;;;;;;;25.22;100.00;101656.41;5079346;28;20021;-60
2022/08/27 08:30:00;;;;;;;9.97;2.70;;;;;;;24.99;100.00;101658.59;5079526;28;20032;-58
2022/08/27 08:32:26;;;;;;;8.47;4.40;;;;;;;24.88;100.00;101662.41;5075500;28;20059;-58
2022/08/27 08:34:52;;;;;;;9.77;3.40;;;;;;;25.29;100.00;101651.47;5079656;28;20041;-57
2022/08/27 08:37:18;;;;;;;6.00;2.85;;;;;;;25.45;100.00;101659.66;5078972;28;20033;-57
2022/08/27 08:39:43;;;;;;;10.98;3.25;;;;;;;25.32;100.00;101656.38;5078945;28;20047;-56
2022/08/27 08:42:24;;;;;;;8.43;2.75;;;;;;;25.30;100.00;101657.75;5079887;28;20044;-59
2022/08/27 08:44:52;;;;;;;10.33;1.93;;;;;;;25.15;100.00;101661.34;5076796;28;20033;-58
2022/08/27 08:47:22;;;;;;;6.67;2.90;;;;;;;25.41;100.00;101666.78;5080538;28;20029;-55
2022/08/27 08:49:54;;;;;;;7.43;2.60;;;;;;;25.33;100.00;101657.22;5080473;28;20029;-58
2022/08/27 08:52:23;;;;;;;5.77;2.73;;;;;;;25.64;100.00;101659.91;5080938;28;20037;-57
2022/08/27 08:54:50;;;;;;;7.57;2.00;;;;;;;25.88;100.00;101667.50;5082382;28;20032;-55
2022/08/27 08:57:39;;;;;;;9.20;2.00;;;;;;;25.41;100.00;101669.53;5082799;28;20033;-55
2022/08/27 09:00:12;;;;;;;9.60;2.57;;;;;;;25.37;100.00;101662.94;5082715;28;20060;-56
2022/08/27 09:02:44;;;;;;;6.20;2.13;;;;;;;25.50;100.00;101667.88;5081416;28;20036;-57
2022/08/27 09:05:10;;;;;;;4.30;1.73;;;;;;;25.67;100.00;101664.81;5077019;28;20052;-58
2022/08/27 09:07:46;;;;;;;7.57;1.80;;;;;;;25.46;100.00;101667.56;5073289;28;20033;-54
2022/08/27 09:10:26;;;;;;;5.10;1.77;;;;;;;25.79;100.00;101667.25;5079745;28;20036;-59
2022/08/27 09:12:57;;;;;;;7.90;2.20;;;;;;;26.15;100.00;101672.59;5078034;28;20032;-57
2022/08/27 09:15:27;;;;;;;4.87;1.77;;;;;;;26.97;100.00;101666.94;5080613;28;20056;-56
2022/08/27 09:18:11;;;;;;;21.40;3.17;;;;;;;27.62;100.00;101669.34;5078453;28;20047;-59
2022/08/27 09:20:40;;;;;;;5.77;2.60;;;;;;;28.16;96.59;101676.72;5080993;28;20040;-58
2022/08/27 09:23:16;;;;;;;7.50;3.42;;;;;;;28.07;94.30;101679.28;5081312;28;20033;-58
2022/08/27 09:25:43;;;;;;;9.38;2.20;;;;;;;28.50;92.02;101683.97;5083194;28;20025;-57
2022/08/27 09:31:02;;;;;;;12.88;4.05;;;;;;;29.14;88.13;101683.50;5084802;28;20074;-60
2022/08/27 09:33:27;;;;;;;9.90;2.20;;;;;;;28.54;89.29;101682.25;5079068;28;20036;-59
2022/08/27 09:35:53;;;;;;;7.47;2.55;;;;;;;28.86;90.14;101682.63;5075257;28;20031;-59
2022/08/27 09:38:27;;;;;;;5.68;2.08;;;;;;;28.77;86.85;101675.00;5078801;28;20040;-58
2022/08/27 09:40:58;;;;;;;3.08;1.50;;;;;;;28.42;94.76;101677.19;5081825;28;20053;-59
2022/08/27 09:43:27;;;;;;;3.42;1.48;;;;;;;28.27;95.83;101677.41;5077039;28;20037;-58
2022/08/27 09:45:58;;;;;;;5.13;1.80;;;;;;;28.18;94.42;101682.75;5077866;28;20029;-60
2022/08/27 09:48:28;;;;;;;4.13;2.17;;;;;;;29.14;84.36;101680.75;5076308;28;20036;-57
2022/08/27 09:50:58;;;;;;;5.15;1.80;;;;;;;28.85;78.12;101687.31;5077824;28;20037;-58
2022/08/27 09:53:30;;;;;;;3.50;1.65;;;;;;;28.53;86.66;101686.13;5074989;28;20029;-58
2022/08/27 09:55:58;;;;;;;5.90;1.40;;;;;;;28.27;80.05;101680.16;5073645;28;20043;-57
2022/08/27 09:58:44;;;;;;;6.68;1.73;;;;;;;28.10;90.13;101678.69;5067584;28;20055;-55
2022/08/27 10:01:17;;;;;;;8.43;1.75;;;;;;;27.82;89.60;101677.69;5068637;28;20029;-57
2022/08/27 10:03:42;;;;;;;10.77;4.97;;;;;;;27.65;88.54;101678.13;5068187;28;20037;-59
2022/08/27 10:06:09;;;;;;;22.63;12.32;;;;;;;27.71;94.34;101672.28;5069191;28;20039;-57
2022/08/27 10:08:39;;;;;;;69.40;38.30;;;;;;;27.73;91.81;101675.56;5068829;28;20060;-57
2022/08/27 10:11:24;;;;;;;17.80;8.63;;;;;;;27.89;93.12;101673.44;5074778;28;20037;-58
2022/08/27 10:14:04;;;;;;;21.93;11.83;;;;;;;28.03;95.63;101675.47;5079615;28;20082;-57
2022/08/27 10:17:11;;;;;;;37.75;18.30;;;;;;;28.00;97.80;101679.63;5071599;28;20056;-58
2022/08/27 10:20:02;;;;;;;15.37;6.73;;;;;;;28.09;84.68;101681.75;5070728;28;20468;-60
2022/08/27 10:22:40;;;;;;;58.47;33.17;;;;;;;28.33;88.94;101681.72;5070391;28;20033;-58
2022/08/27 10:25:19;;;;;;;42.10;24.07;;;;;;;28.60;84.87;101692.06;5072355;28;20029;-55
2022/08/27 10:27:50;;;;;;;80.00;46.50;;;;;;;28.38;93.22;101689.91;5071282;28;20045;-58
2022/08/27 10:30:22;;;;;;;26.10;14.98;;;;;;;28.43;99.93;101681.59;5073005;28;20047;-58
2022/08/27 10:32:58;;;;;;;38.42;19.67;;;;;;;28.41;87.40;101683.81;5071364;28;20041;-57
2022/08/27 10:35:41;;;;;;;43.67;19.08;;;;;;;28.51;84.39;101685.59;5071660;28;20059;-57
2022/08/27 10:38:15;;;;;;;8.70;2.90;;;;;;;27.96;80.18;101683.28;5068092;28;20077;-57
2022/08/27 10:41:04;;;;;;;87.25;47.85;;;;;;;28.46;87.49;101680.16;5067470;28;20075;-58
2022/08/27 10:44:06;;;;;;;82.97;37.78;;;;;;;28.32;87.63;101674.56;5066626;28;20037;-59
2022/08/27 10:46:54;;;;;;;82.55;41.30;;;;;;;28.74;92.17;101674.81;5070519;28;20033;-54
2022/08/27 10:50:04;;;;;;;93.43;43.83;;;;;;;29.19;87.12;101671.59;5072304;28;20028;-58
2022/08/27 10:52:36;;;;;;;37.72;17.40;;;;;;;29.46;86.15;101673.63;5070850;28;20087;-55
2022/08/27 10:55:25;;;;;;;23.48;12.80;;;;;;;29.84;88.87;101680.88;5071173;28;20033;-57
2022/08/27 10:58:06;;;;;;;24.52;11.30;;;;;;;29.81;74.84;101683.41;5068692;28;20039;-57
2022/08/27 11:00:50;;;;;;;23.27;11.15;;;;;;;30.05;74.92;101677.72;5077745;28;20180;-56
2022/08/27 11:03:47;;;;;;;13.25;6.47;;;;;;;30.00;75.80;101675.06;5068634;28;20037;-60
2022/08/27 11:06:19;;;;;;;;;;;;;;;30.02;70.58;101678.34;5069383;28;20044;-56
2022/08/27 11:08:52;;;;;;;89.80;55.35;;;;;;;31.18;72.86;101681.72;5075492;28;19917;-58
2022/08/27 11:11:38;;;;;;;71.20;41.75;;;;;;;32.05;65.08;101683.22;5069687;28;20033;-58
2022/08/27 11:14:28;;;;;;;30.77;17.60;;;;;;;32.16;66.37;101667.13;5071976;28;20084;-57
2022/08/27 11:17:02;;;;;;;118.22;70.50;;;;;;;31.42;66.56;101673.09;5068953;28;20057;-57
2022/08/27 11:19:49;;;;;;;13.40;5.72;;;;;;;31.29;64.24;101674.00;5071957;28;20028;-56
2022/08/27 11:22:23;;;;;;;65.82;29.67;;;;;;;31.43;68.87;101671.94;5068502;28;20041;-57
2022/08/27 11:24:55;;;;;;;10.80;3.60;;;;;;;31.40;62.64;101674.56;5069953;28;20044;-58
2022/08/27 11:27:25;;;;;;;16.45;7.45;;;;;;;31.58;63.11;101670.69;5066723;28;20064;-57
2022/08/27 11:30:04;;;;;;;46.05;20.58;;;;;;;32.10;61.74;101669.25;5068839;28;20034;-56
2022/08/27 11:32:46;;;;;;;28.00;13.35;;;;;;;33.12;61.07;101669.06;5068629;28;20033;-57
2022/08/27 11:35:28;;;;;;;19.55;7.03;;;;;;;31.97;65.59;101675.72;5075339;28;20043;-57
2022/08/27 11:38:26;;;;;;;16.95;9.25;;;;;;;31.89;64.79;101669.88;5071109;28;20070;-57
2022/08/27 11:41:05;;;;;;;77.93;46.67;;;;;;;31.48;66.71;101668.25;5075127;28;20124;-54
2022/08/27 11:43:35;;;;;;;27.42;15.55;;;;;;;31.35;62.68;101663.63;5074456;28;20063;-58